sensor_id;sensor_type;location;lat;lon;timestamp;P1;durP1;ratioP1;P2;durP2;ratioP2
18443;SDS011;9350;53.176;8.194;2022-11-20T00:01:16;20.98;;;10.63;;
18443;SDS011;9350;53.176;8.194;2022-11-20T00:03:44;17.92;;;10.10;;
18443;SDS011;9350;53.176;8.194;2022-11-20T00:06:12;19.65;;;10.68;;
18443;SDS011;9350;53.176;8.194;2022-11-20T00:08:41;21.92;;;11.15;;
18443;SDS011;9350;53.176;8.194;2022-11-20T00:11:09;17.52;;;10.05;;
18443;SDS011;9350;53.176;8.194;2022-11-20T00:13:37;18.45;;;10.88;;
18443;SDS011;9350;53.176;8.194;2022-11-20T00:16:05;18.45;;;11.18;;
18443;SDS011;9350;53.176;8.194;2022-11-20T00:18:34;20.55;;;10.27;;
18443;SDS011;9350;53.176;8.194;2022-11-20T00:21:01;17.52;;;10.27;;
18443;SDS011;9350;53.176;8.194;2022-11-20T00:23:29;18.90;;;10.48;;
18443;SDS011;9350;53.176;8.194;2022-11-20T00:26:00;19.00;;;10.80;;
18443;SDS011;9350;53.176;8.194;2022-11-20T00:28:27;18.08;;;10.55;;
18443;SDS011;9350;53.176;8.194;2022-11-20T00:30:59;20.38;;;11.10;;
18443;SDS011;9350;53.176;8.194;2022-11-20T00:33:27;21.77;;;11.18;;
18443;SDS011;9350;53.176;8.194;2022-11-20T00:35:58;19.90;;;11.23;;
18443;SDS011;9350;53.176;8.194;2022-11-20T00:38:25;20.50;;;10.77;;
18443;SDS011;9350;53.176;8.194;2022-11-20T00:40:54;22.30;;;11.25;;
18443;SDS011;9350;53.176;8.194;2022-11-20T00:43:23;21.77;;;11.32;;
18443;SDS011;9350;53.176;8.194;2022-11-20T00:45:50;17.60;;;10.52;;
18443;SDS011;9350;53.176;8.194;2022-11-20T00:48:17;17.13;;;10.30;;
18443;SDS011;9350;53.176;8.194;2022-11-20T00:50:43;21.73;;;11.23;;
18443;SDS011;9350;53.176;8.194;2022-11-20T00:53:10;18.10;;;10.10;;
18443;SDS011;9350;53.176;8.194;2022-11-20T00:55:37;21.00;;;10.15;;
18443;SDS011;9350;53.176;8.194;2022-11-20T00:58:04;18.55;;;11.02;;
18443;SDS011;9350;53.176;8.194;2022-11-20T01:00:32;17.80;;;10.05;;
18443;SDS011;9350;53.176;8.194;2022-11-20T01:02:58;17.75;;;9.98;;
18443;SDS011;9350;53.176;8.194;2022-11-20T01:05:25;21.85;;;10.70;;
18443;SDS011;9350;53.176;8.194;2022-11-20T01:07:52;20.13;;;10.18;;
18443;SDS011;9350;53.176;8.194;2022-11-20T01:10:19;17.90;;;9.88;;
18443;SDS011;9350;53.176;8.194;2022-11-20T01:12:46;20.02;;;9.93;;
18443;SDS011;9350;53.176;8.194;2022-11-20T01:15:34;18.88;;;10.80;;
18443;SDS011;9350;53.176;8.194;2022-11-20T01:18:01;19.92;;;9.57;;
18443;SDS011;9350;53.176;8.194;2022-11-20T01:20:28;19.55;;;10.38;;
18443;SDS011;9350;53.176;8.194;2022-11-20T01:22:55;17.13;;;10.00;;
18443;SDS011;9350;53.176;8.194;2022-11-20T01:25:22;18.00;;;9.45;;
18443;SDS011;9350;53.176;8.194;2022-11-20T01:27:48;17.38;;;10.25;;
18443;SDS011;9350;53.176;8.194;2022-11-20T01:30:15;19.77;;;10.27;;
18443;SDS011;9350;53.176;8.194;2022-11-20T01:32:43;17.67;;;9.73;;
18443;SDS011;9350;53.176;8.194;2022-11-20T01:35:10;16.98;;;9.65;;
18443;SDS011;9350;53.176;8.194;2022-11-20T01:37:37;16.08;;;9.63;;
18443;SDS011;9350;53.176;8.194;2022-11-20T01:40:04;15.00;;;8.85;;
18443;SDS011;9350;53.176;8.194;2022-11-20T01:42:31;16.30;;;9.35;;
18443;SDS011;9350;53.176;8.194;2022-11-20T01:48:25;16.35;;;9.85;;
18443;SDS011;9350;53.176;8.194;2022-11-20T01:50:56;16.13;;;9.15;;
18443;SDS011;9350;53.176;8.194;2022-11-20T01:53:25;15.65;;;9.52;;
18443;SDS011;9350;53.176;8.194;2022-11-20T01:55:58;16.20;;;9.32;;
18443;SDS011;9350;53.176;8.194;2022-11-20T01:58:27;17.55;;;9.88;;
18443;SDS011;9350;53.176;8.194;2022-11-20T02:00:58;14.18;;;9.10;;
18443;SDS011;9350;53.176;8.194;2022-11-20T02:03:26;20.23;;;9.43;;
18443;SDS011;9350;53.176;8.194;2022-11-20T02:05:54;18.15;;;9.32;;
18443;SDS011;9350;53.176;8.194;2022-11-20T02:08:26;15.93;;;9.23;;
18443;SDS011;9350;53.176;8.194;2022-11-20T02:10:54;17.05;;;9.10;;
18443;SDS011;9350;53.176;8.194;2022-11-20T02:13:21;16.75;;;8.93;;
18443;SDS011;9350;53.176;8.194;2022-11-20T02:16:05;16.30;;;9.52;;
18443;SDS011;9350;53.176;8.194;2022-11-20T02:18:39;15.40;;;8.13;;
18443;SDS011;9350;53.176;8.194;2022-11-20T02:21:09;13.48;;;8.48;;
18443;SDS011;9350;53.176;8.194;2022-11-20T02:23:54;13.20;;;8.43;;
18443;SDS011;9350;53.176;8.194;2022-11-20T02:26:26;14.27;;;8.68;;
18443;SDS011;9350;53.176;8.194;2022-11-20T02:28:54;14.80;;;8.13;;
18443;SDS011;9350;53.176;8.194;2022-11-20T02:31:21;13.88;;;8.00;;
18443;SDS011;9350;53.176;8.194;2022-11-20T02:33:53;12.90;;;7.60;;
18443;SDS011;9350;53.176;8.194;2022-11-20T02:36:21;14.02;;;8.15;;
18443;SDS011;9350;53.176;8.194;2022-11-20T02:38:48;17.42;;;8.32;;
18443;SDS011;9350;53.176;8.194;2022-11-20T02:41:18;15.25;;;8.27;;
18443;SDS011;9350;53.176;8.194;2022-11-20T02:43:45;13.57;;;7.97;;
18443;SDS011;9350;53.176;8.194;2022-11-20T02:46:12;15.65;;;8.18;;
18443;SDS011;9350;53.176;8.194;2022-11-20T02:48:39;15.88;;;8.10;;
18443;SDS011;9350;53.176;8.194;2022-11-20T02:51:06;14.95;;;8.10;;
18443;SDS011;9350;53.176;8.194;2022-11-20T02:53:33;13.82;;;7.60;;
18443;SDS011;9350;53.176;8.194;2022-11-20T02:56:00;16.27;;;8.00;;
18443;SDS011;9350;53.176;8.194;2022-11-20T02:58:28;12.75;;;7.97;;
18443;SDS011;9350;53.176;8.194;2022-11-20T03:00:55;15.05;;;7.57;;
18443;SDS011;9350;53.176;8.194;2022-11-20T03:03:22;13.27;;;7.22;;
18443;SDS011;9350;53.176;8.194;2022-11-20T03:05:48;12.73;;;7.50;;
18443;SDS011;9350;53.176;8.194;2022-11-20T03:08:15;15.45;;;8.23;;
18443;SDS011;9350;53.176;8.194;2022-11-20T03:10:42;14.35;;;7.53;;
18443;SDS011;9350;53.176;8.194;2022-11-20T03:13:08;13.60;;;6.97;;
18443;SDS011;9350;53.176;8.194;2022-11-20T03:15:36;10.98;;;7.38;;
18443;SDS011;9350;53.176;8.194;2022-11-20T03:18:03;12.82;;;7.60;;
18443;SDS011;9350;53.176;8.194;2022-11-20T03:20:31;12.88;;;7.57;;
18443;SDS011;9350;53.176;8.194;2022-11-20T03:22:58;14.27;;;7.72;;
18443;SDS011;9350;53.176;8.194;2022-11-20T03:25:25;12.50;;;7.72;;
18443;SDS011;9350;53.176;8.194;2022-11-20T03:27:53;15.65;;;7.28;;
18443;SDS011;9350;53.176;8.194;2022-11-20T03:30:20;11.75;;;6.90;;
18443;SDS011;9350;53.176;8.194;2022-11-20T03:32:48;14.63;;;7.00;;
18443;SDS011;9350;53.176;8.194;2022-11-20T03:35:15;11.02;;;6.95;;
18443;SDS011;9350;53.176;8.194;2022-11-20T03:37:42;11.75;;;7.05;;
18443;SDS011;9350;53.176;8.194;2022-11-20T03:40:10;11.80;;;6.90;;
18443;SDS011;9350;53.176;8.194;2022-11-20T03:42:37;13.93;;;6.85;;
18443;SDS011;9350;53.176;8.194;2022-11-20T03:45:13;10.73;;;6.38;;
18443;SDS011;9350;53.176;8.194;2022-11-20T03:47:40;10.70;;;6.55;;
18443;SDS011;9350;53.176;8.194;2022-11-20T03:50:09;10.52;;;6.28;;
18443;SDS011;9350;53.176;8.194;2022-11-20T03:52:38;13.60;;;7.32;;
18443;SDS011;9350;53.176;8.194;2022-11-20T03:55:05;13.43;;;6.60;;
18443;SDS011;9350;53.176;8.194;2022-11-20T03:57:32;13.55;;;7.25;;
18443;SDS011;9350;53.176;8.194;2022-11-20T03:59:59;9.68;;;6.47;;
18443;SDS011;9350;53.176;8.194;2022-11-20T04:02:26;9.07;;;6.10;;
18443;SDS011;9350;53.176;8.194;2022-11-20T04:04:52;10.48;;;5.75;;
18443;SDS011;9350;53.176;8.194;2022-11-20T04:07:20;11.27;;;6.20;;
18443;SDS011;9350;53.176;8.194;2022-11-20T04:09:47;8.40;;;5.85;;
18443;SDS011;9350;53.176;8.194;2022-11-20T04:12:14;11.30;;;6.35;;
18443;SDS011;9350;53.176;8.194;2022-11-20T04:14:40;11.80;;;5.72;;
18443;SDS011;9350;53.176;8.194;2022-11-20T04:17:07;8.40;;;5.05;;
18443;SDS011;9350;53.176;8.194;2022-11-20T04:19:34;9.70;;;5.50;;
18443;SDS011;9350;53.176;8.194;2022-11-20T04:22:01;10.30;;;5.50;;
18443;SDS011;9350;53.176;8.194;2022-11-20T04:24:29;10.80;;;6.05;;
18443;SDS011;9350;53.176;8.194;2022-11-20T04:26:55;8.40;;;5.43;;
18443;SDS011;9350;53.176;8.194;2022-11-20T04:29:22;8.35;;;5.53;;
18443;SDS011;9350;53.176;8.194;2022-11-20T04:31:49;12.73;;;5.78;;
18443;SDS011;9350;53.176;8.194;2022-11-20T04:34:16;7.22;;;5.25;;
18443;SDS011;9350;53.176;8.194;2022-11-20T04:36:42;7.32;;;4.68;;
18443;SDS011;9350;53.176;8.194;2022-11-20T04:39:12;7.45;;;4.88;;
18443;SDS011;9350;53.176;8.194;2022-11-20T04:41:41;8.18;;;5.20;;
18443;SDS011;9350;53.176;8.194;2022-11-20T04:44:09;10.32;;;5.68;;
18443;SDS011;9350;53.176;8.194;2022-11-20T04:46:37;6.85;;;4.70;;
18443;SDS011;9350;53.176;8.194;2022-11-20T04:49:05;6.20;;;4.45;;
18443;SDS011;9350;53.176;8.194;2022-11-20T04:51:33;8.73;;;5.43;;
18443;SDS011;9350;53.176;8.194;2022-11-20T04:54:00;8.55;;;5.13;;
18443;SDS011;9350;53.176;8.194;2022-11-20T04:56:27;8.75;;;5.10;;
18443;SDS011;9350;53.176;8.194;2022-11-20T04:58:55;7.68;;;4.68;;
18443;SDS011;9350;53.176;8.194;2022-11-20T05:01:22;6.80;;;4.88;;
18443;SDS011;9350;53.176;8.194;2022-11-20T05:03:50;10.02;;;5.13;;
18443;SDS011;9350;53.176;8.194;2022-11-20T05:06:18;11.52;;;6.35;;
18443;SDS011;9350;53.176;8.194;2022-11-20T05:08:46;8.98;;;4.85;;
18443;SDS011;9350;53.176;8.194;2022-11-20T05:11:13;8.00;;;5.22;;
18443;SDS011;9350;53.176;8.194;2022-11-20T05:13:41;7.07;;;5.13;;
18443;SDS011;9350;53.176;8.194;2022-11-20T05:16:11;11.35;;;5.70;;
18443;SDS011;9350;53.176;8.194;2022-11-20T05:18:38;8.02;;;5.50;;
18443;SDS011;9350;53.176;8.194;2022-11-20T05:21:07;12.10;;;5.30;;
18443;SDS011;9350;53.176;8.194;2022-11-20T05:23:34;9.45;;;5.28;;
18443;SDS011;9350;53.176;8.194;2022-11-20T05:26:02;12.48;;;5.80;;
18443;SDS011;9350;53.176;8.194;2022-11-20T05:28:30;9.00;;;5.80;;
18443;SDS011;9350;53.176;8.194;2022-11-20T05:31:03;9.27;;;6.05;;
18443;SDS011;9350;53.176;8.194;2022-11-20T05:33:32;8.88;;;5.47;;
18443;SDS011;9350;53.176;8.194;2022-11-20T05:35:59;8.55;;;5.43;;
18443;SDS011;9350;53.176;8.194;2022-11-20T05:38:26;9.95;;;6.10;;
18443;SDS011;9350;53.176;8.194;2022-11-20T05:40:52;8.75;;;5.75;;
18443;SDS011;9350;53.176;8.194;2022-11-20T05:43:19;7.97;;;5.43;;
18443;SDS011;9350;53.176;8.194;2022-11-20T05:45:51;8.70;;;5.90;;
18443;SDS011;9350;53.176;8.194;2022-11-20T05:48:18;10.77;;;5.80;;
18443;SDS011;9350;53.176;8.194;2022-11-20T05:50:47;9.73;;;5.82;;
18443;SDS011;9350;53.176;8.194;2022-11-20T05:53:14;12.88;;;6.63;;
18443;SDS011;9350;53.176;8.194;2022-11-20T05:55:40;7.90;;;5.75;;
18443;SDS011;9350;53.176;8.194;2022-11-20T05:58:07;10.68;;;6.18;;
18443;SDS011;9350;53.176;8.194;2022-11-20T06:00:34;10.82;;;6.07;;
18443;SDS011;9350;53.176;8.194;2022-11-20T06:03:00;10.73;;;6.15;;
18443;SDS011;9350;53.176;8.194;2022-11-20T06:05:27;11.73;;;6.53;;
18443;SDS011;9350;53.176;8.194;2022-11-20T06:07:55;10.80;;;5.88;;
18443;SDS011;9350;53.176;8.194;2022-11-20T06:10:22;10.02;;;5.75;;
18443;SDS011;9350;53.176;8.194;2022-11-20T06:12:49;8.75;;;5.95;;
18443;SDS011;9350;53.176;8.194;2022-11-20T06:15:15;7.47;;;5.28;;
18443;SDS011;9350;53.176;8.194;2022-11-20T06:17:42;14.93;;;6.53;;
18443;SDS011;9350;53.176;8.194;2022-11-20T06:20:09;10.30;;;6.28;;
18443;SDS011;9350;53.176;8.194;2022-11-20T06:22:36;11.57;;;6.25;;
18443;SDS011;9350;53.176;8.194;2022-11-20T06:25:05;12.05;;;6.28;;
18443;SDS011;9350;53.176;8.194;2022-11-20T06:27:32;11.60;;;6.28;;
18443;SDS011;9350;53.176;8.194;2022-11-20T06:29:58;9.18;;;5.82;;
18443;SDS011;9350;53.176;8.194;2022-11-20T06:32:25;13.50;;;6.75;;
18443;SDS011;9350;53.176;8.194;2022-11-20T06:34:52;10.65;;;6.20;;
18443;SDS011;9350;53.176;8.194;2022-11-20T06:37:19;15.02;;;7.05;;
18443;SDS011;9350;53.176;8.194;2022-11-20T06:39:45;11.13;;;6.82;;
18443;SDS011;9350;53.176;8.194;2022-11-20T06:42:14;9.70;;;6.65;;
18443;SDS011;9350;53.176;8.194;2022-11-20T06:44:40;13.35;;;6.75;;
18443;SDS011;9350;53.176;8.194;2022-11-20T06:47:07;11.35;;;6.80;;
18443;SDS011;9350;53.176;8.194;2022-11-20T06:49:34;10.57;;;6.45;;
18443;SDS011;9350;53.176;8.194;2022-11-20T06:52:02;10.02;;;6.25;;
18443;SDS011;9350;53.176;8.194;2022-11-20T06:54:29;13.90;;;7.32;;
18443;SDS011;9350;53.176;8.194;2022-11-20T06:56:55;13.10;;;7.50;;
18443;SDS011;9350;53.176;8.194;2022-11-20T06:59:24;15.73;;;8.10;;
18443;SDS011;9350;53.176;8.194;2022-11-20T07:01:50;13.80;;;7.93;;
18443;SDS011;9350;53.176;8.194;2022-11-20T07:04:17;17.17;;;8.43;;
18443;SDS011;9350;53.176;8.194;2022-11-20T07:06:44;14.10;;;7.40;;
18443;SDS011;9350;53.176;8.194;2022-11-20T07:09:10;12.10;;;7.20;;
18443;SDS011;9350;53.176;8.194;2022-11-20T07:11:37;20.23;;;11.52;;
18443;SDS011;9350;53.176;8.194;2022-11-20T07:14:04;16.48;;;8.18;;
18443;SDS011;9350;53.176;8.194;2022-11-20T07:16:32;17.75;;;7.90;;
18443;SDS011;9350;53.176;8.194;2022-11-20T07:18:59;12.80;;;7.35;;
18443;SDS011;9350;53.176;8.194;2022-11-20T07:21:26;12.43;;;6.63;;
18443;SDS011;9350;53.176;8.194;2022-11-20T07:23:52;14.35;;;8.23;;
18443;SDS011;9350;53.176;8.194;2022-11-20T07:26:20;14.23;;;8.27;;
18443;SDS011;9350;53.176;8.194;2022-11-20T07:28:46;14.35;;;8.02;;
18443;SDS011;9350;53.176;8.194;2022-11-20T07:31:13;14.68;;;8.00;;
18443;SDS011;9350;53.176;8.194;2022-11-20T07:33:41;12.18;;;7.85;;
18443;SDS011;9350;53.176;8.194;2022-11-20T07:36:08;16.15;;;8.35;;
18443;SDS011;9350;53.176;8.194;2022-11-20T07:38:36;14.95;;;8.32;;
18443;SDS011;9350;53.176;8.194;2022-11-20T07:41:03;14.02;;;8.77;;
18443;SDS011;9350;53.176;8.194;2022-11-20T07:43:30;16.73;;;8.45;;
18443;SDS011;9350;53.176;8.194;2022-11-20T07:45:57;14.45;;;8.63;;
18443;SDS011;9350;53.176;8.194;2022-11-20T07:48:24;17.48;;;9.73;;
18443;SDS011;9350;53.176;8.194;2022-11-20T07:50:54;15.45;;;8.68;;
18443;SDS011;9350;53.176;8.194;2022-11-20T07:53:21;15.35;;;8.65;;
18443;SDS011;9350;53.176;8.194;2022-11-20T07:55:48;18.75;;;9.27;;
18443;SDS011;9350;53.176;8.194;2022-11-20T07:58:17;15.05;;;9.25;;
18443;SDS011;9350;53.176;8.194;2022-11-20T08:00:43;15.98;;;9.07;;
18443;SDS011;9350;53.176;8.194;2022-11-20T08:03:10;12.95;;;8.02;;
18443;SDS011;9350;53.176;8.194;2022-11-20T08:05:37;15.98;;;9.15;;
18443;SDS011;9350;53.176;8.194;2022-11-20T08:08:05;15.50;;;8.88;;
18443;SDS011;9350;53.176;8.194;2022-11-20T08:10:32;13.90;;;8.65;;
18443;SDS011;9350;53.176;8.194;2022-11-20T08:12:59;15.85;;;9.18;;
18443;SDS011;9350;53.176;8.194;2022-11-20T08:15:47;16.00;;;9.77;;
18443;SDS011;9350;53.176;8.194;2022-11-20T08:18:15;15.07;;;8.77;;
18443;SDS011;9350;53.176;8.194;2022-11-20T08:20:42;18.50;;;9.32;;
18443;SDS011;9350;53.176;8.194;2022-11-20T08:23:10;14.45;;;8.75;;
18443;SDS011;9350;53.176;8.194;2022-11-20T08:25:37;14.88;;;8.60;;
18443;SDS011;9350;53.176;8.194;2022-11-20T08:28:05;14.38;;;8.48;;
18443;SDS011;9350;53.176;8.194;2022-11-20T08:30:33;13.98;;;8.63;;
18443;SDS011;9350;53.176;8.194;2022-11-20T08:33:00;14.95;;;9.52;;
18443;SDS011;9350;53.176;8.194;2022-11-20T08:35:32;17.95;;;9.13;;
18443;SDS011;9350;53.176;8.194;2022-11-20T08:37:59;17.48;;;9.30;;
18443;SDS011;9350;53.176;8.194;2022-11-20T08:40:27;18.08;;;10.30;;
18443;SDS011;9350;53.176;8.194;2022-11-20T08:42:54;16.75;;;9.95;;
18443;SDS011;9350;53.176;8.194;2022-11-20T08:45:21;18.02;;;9.63;;
18443;SDS011;9350;53.176;8.194;2022-11-20T08:47:48;17.73;;;10.23;;
18443;SDS011;9350;53.176;8.194;2022-11-20T08:50:15;17.00;;;10.02;;
18443;SDS011;9350;53.176;8.194;2022-11-20T08:52:42;18.05;;;9.25;;
18443;SDS011;9350;53.176;8.194;2022-11-20T08:55:09;16.45;;;9.52;;
18443;SDS011;9350;53.176;8.194;2022-11-20T08:57:38;18.38;;;9.70;;
18443;SDS011;9350;53.176;8.194;2022-11-20T09:00:05;18.33;;;9.70;;
18443;SDS011;9350;53.176;8.194;2022-11-20T09:02:33;16.63;;;8.95;;
18443;SDS011;9350;53.176;8.194;2022-11-20T09:05:00;16.98;;;9.02;;
18443;SDS011;9350;53.176;8.194;2022-11-20T09:07:28;19.15;;;9.75;;
18443;SDS011;9350;53.176;8.194;2022-11-20T09:09:55;16.63;;;10.57;;
18443;SDS011;9350;53.176;8.194;2022-11-20T09:12:21;17.15;;;9.57;;
18443;SDS011;9350;53.176;8.194;2022-11-20T09:14:50;17.02;;;9.70;;
18443;SDS011;9350;53.176;8.194;2022-11-20T09:17:16;15.50;;;9.48;;
18443;SDS011;9350;53.176;8.194;2022-11-20T09:19:45;15.85;;;9.23;;
18443;SDS011;9350;53.176;8.194;2022-11-20T09:22:12;17.13;;;9.00;;
18443;SDS011;9350;53.176;8.194;2022-11-20T09:24:39;17.42;;;10.20;;
18443;SDS011;9350;53.176;8.194;2022-11-20T09:27:05;16.98;;;8.95;;
18443;SDS011;9350;53.176;8.194;2022-11-20T09:29:32;15.27;;;8.85;;
18443;SDS011;9350;53.176;8.194;2022-11-20T09:32:00;17.30;;;9.43;;
18443;SDS011;9350;53.176;8.194;2022-11-20T09:34:27;15.35;;;8.85;;
18443;SDS011;9350;53.176;8.194;2022-11-20T09:36:53;19.98;;;9.40;;
18443;SDS011;9350;53.176;8.194;2022-11-20T09:39:20;15.80;;;8.82;;
18443;SDS011;9350;53.176;8.194;2022-11-20T09:41:51;15.80;;;9.52;;
18443;SDS011;9350;53.176;8.194;2022-11-20T09:44:49;16.67;;;9.10;;
18443;SDS011;9350;53.176;8.194;2022-11-20T09:47:26;17.27;;;8.77;;
18443;SDS011;9350;53.176;8.194;2022-11-20T09:50:02;13.68;;;8.73;;
18443;SDS011;9350;53.176;8.194;2022-11-20T09:52:40;13.75;;;8.80;;
18443;SDS011;9350;53.176;8.194;2022-11-20T09:55:15;15.13;;;9.48;;
18443;SDS011;9350;53.176;8.194;2022-11-20T09:57:44;19.75;;;8.98;;
18443;SDS011;9350;53.176;8.194;2022-11-20T10:00:14;18.63;;;9.27;;
18443;SDS011;9350;53.176;8.194;2022-11-20T10:02:44;14.68;;;8.77;;
18443;SDS011;9350;53.176;8.194;2022-11-20T10:05:18;15.77;;;9.48;;
18443;SDS011;9350;53.176;8.194;2022-11-20T10:07:48;17.05;;;9.73;;
18443;SDS011;9350;53.176;8.194;2022-11-20T10:10:22;18.50;;;8.80;;
18443;SDS011;9350;53.176;8.194;2022-11-20T10:13:01;16.45;;;9.23;;
18443;SDS011;9350;53.176;8.194;2022-11-20T10:15:40;28.58;;;9.52;;
18443;SDS011;9350;53.176;8.194;2022-11-20T10:18:19;17.90;;;8.57;;
18443;SDS011;9350;53.176;8.194;2022-11-20T10:20:54;17.48;;;8.80;;
18443;SDS011;9350;53.176;8.194;2022-11-20T10:23:34;17.63;;;9.25;;
18443;SDS011;9350;53.176;8.194;2022-11-20T10:26:16;16.63;;;9.25;;
18443;SDS011;9350;53.176;8.194;2022-11-20T10:28:50;14.23;;;9.02;;
18443;SDS011;9350;53.176;8.194;2022-11-20T10:31:33;15.30;;;7.95;;
18443;SDS011;9350;53.176;8.194;2022-11-20T10:34:05;15.40;;;8.40;;
18443;SDS011;9350;53.176;8.194;2022-11-20T10:36:38;14.85;;;8.30;;
18443;SDS011;9350;53.176;8.194;2022-11-20T10:39:12;15.50;;;8.52;;
18443;SDS011;9350;53.176;8.194;2022-11-20T10:41:43;28.50;;;10.75;;
18443;SDS011;9350;53.176;8.194;2022-11-20T10:44:14;15.43;;;8.38;;
18443;SDS011;9350;53.176;8.194;2022-11-20T10:47:03;14.40;;;8.25;;
18443;SDS011;9350;53.176;8.194;2022-11-20T10:49:32;13.15;;;8.20;;
18443;SDS011;9350;53.176;8.194;2022-11-20T10:52:03;14.23;;;8.45;;
18443;SDS011;9350;53.176;8.194;2022-11-20T10:54:36;12.00;;;7.78;;
18443;SDS011;9350;53.176;8.194;2022-11-20T10:57:13;12.88;;;8.00;;
18443;SDS011;9350;53.176;8.194;2022-11-20T11:00:00;13.60;;;7.85;;
18443;SDS011;9350;53.176;8.194;2022-11-20T11:02:34;12.75;;;7.40;;
18443;SDS011;9350;53.176;8.194;2022-11-20T11:05:18;10.13;;;6.72;;
18443;SDS011;9350;53.176;8.194;2022-11-20T11:07:52;11.82;;;7.13;;
18443;SDS011;9350;53.176;8.194;2022-11-20T11:10:23;13.20;;;7.00;;
18443;SDS011;9350;53.176;8.194;2022-11-20T11:12:54;13.15;;;7.32;;
18443;SDS011;9350;53.176;8.194;2022-11-20T11:15:28;11.20;;;6.55;;
18443;SDS011;9350;53.176;8.194;2022-11-20T11:17:56;9.88;;;6.30;;
18443;SDS011;9350;53.176;8.194;2022-11-20T11:20:24;10.75;;;6.55;;
18443;SDS011;9350;53.176;8.194;2022-11-20T11:22:52;11.05;;;6.40;;
18443;SDS011;9350;53.176;8.194;2022-11-20T11:25:25;16.63;;;7.35;;
18443;SDS011;9350;53.176;8.194;2022-11-20T11:27:56;11.05;;;7.30;;
18443;SDS011;9350;53.176;8.194;2022-11-20T11:30:24;11.90;;;6.50;;
18443;SDS011;9350;53.176;8.194;2022-11-20T11:33:02;8.98;;;6.43;;
18443;SDS011;9350;53.176;8.194;2022-11-20T11:35:31;12.40;;;6.05;;
18443;SDS011;9350;53.176;8.194;2022-11-20T11:38:02;8.73;;;6.05;;
18443;SDS011;9350;53.176;8.194;2022-11-20T11:40:32;8.43;;;5.78;;
18443;SDS011;9350;53.176;8.194;2022-11-20T11:43:02;10.25;;;6.05;;
18443;SDS011;9350;53.176;8.194;2022-11-20T11:45:53;9.68;;;6.30;;
18443;SDS011;9350;53.176;8.194;2022-11-20T11:48:20;8.30;;;5.43;;
18443;SDS011;9350;53.176;8.194;2022-11-20T11:50:49;8.73;;;6.00;;
18443;SDS011;9350;53.176;8.194;2022-11-20T11:53:17;8.68;;;5.60;;
18443;SDS011;9350;53.176;8.194;2022-11-20T11:55:46;9.82;;;5.95;;
18443;SDS011;9350;53.176;8.194;2022-11-20T11:58:20;8.18;;;5.97;;
18443;SDS011;9350;53.176;8.194;2022-11-20T12:01:01;10.38;;;6.05;;
18443;SDS011;9350;53.176;8.194;2022-11-20T12:03:34;11.25;;;6.50;;
18443;SDS011;9350;53.176;8.194;2022-11-20T12:06:05;12.00;;;6.18;;
18443;SDS011;9350;53.176;8.194;2022-11-20T12:08:39;10.68;;;6.38;;
18443;SDS011;9350;53.176;8.194;2022-11-20T12:11:16;14.77;;;7.38;;
18443;SDS011;9350;53.176;8.194;2022-11-20T12:13:50;16.83;;;8.77;;
18443;SDS011;9350;53.176;8.194;2022-11-20T12:16:20;12.13;;;7.47;;
18443;SDS011;9350;53.176;8.194;2022-11-20T12:18:48;23.65;;;8.20;;
18443;SDS011;9350;53.176;8.194;2022-11-20T12:21:23;10.90;;;6.18;;
18443;SDS011;9350;53.176;8.194;2022-11-20T12:24:16;10.27;;;6.20;;
18443;SDS011;9350;53.176;8.194;2022-11-20T12:30:00;15.98;;;7.00;;
18443;SDS011;9350;53.176;8.194;2022-11-20T12:35:39;15.27;;;6.82;;
18443;SDS011;9350;53.176;8.194;2022-11-20T12:41:15;11.30;;;7.00;;
18443;SDS011;9350;53.176;8.194;2022-11-20T12:44:12;10.50;;;6.30;;
18443;SDS011;9350;53.176;8.194;2022-11-20T12:47:10;10.13;;;6.47;;
18443;SDS011;9350;53.176;8.194;2022-11-20T12:49:46;9.48;;;5.80;;
18443;SDS011;9350;53.176;8.194;2022-11-20T12:52:21;7.45;;;5.30;;
18443;SDS011;9350;53.176;8.194;2022-11-20T12:55:16;10.50;;;5.95;;
18443;SDS011;9350;53.176;8.194;2022-11-20T12:57:53;9.38;;;5.97;;
18443;SDS011;9350;53.176;8.194;2022-11-20T13:00:24;10.57;;;6.18;;
18443;SDS011;9350;53.176;8.194;2022-11-20T13:02:57;12.45;;;6.47;;
18443;SDS011;9350;53.176;8.194;2022-11-20T13:05:34;9.73;;;5.72;;
18443;SDS011;9350;53.176;8.194;2022-11-20T13:08:06;10.27;;;6.05;;
18443;SDS011;9350;53.176;8.194;2022-11-20T13:10:42;8.90;;;6.05;;
18443;SDS011;9350;53.176;8.194;2022-11-20T13:13:16;11.27;;;6.07;;
18443;SDS011;9350;53.176;8.194;2022-11-20T13:15:50;9.82;;;5.85;;
18443;SDS011;9350;53.176;8.194;2022-11-20T13:18:22;13.15;;;7.82;;
18443;SDS011;9350;53.176;8.194;2022-11-20T13:20:49;15.85;;;8.30;;
18443;SDS011;9350;53.176;8.194;2022-11-20T13:23:23;16.42;;;9.05;;
18443;SDS011;9350;53.176;8.194;2022-11-20T13:25:51;12.98;;;6.55;;
18443;SDS011;9350;53.176;8.194;2022-11-20T13:28:30;10.13;;;5.85;;
18443;SDS011;9350;53.176;8.194;2022-11-20T13:30:57;9.18;;;6.10;;
18443;SDS011;9350;53.176;8.194;2022-11-20T13:33:27;9.88;;;6.25;;
18443;SDS011;9350;53.176;8.194;2022-11-20T13:35:57;9.52;;;6.65;;
18443;SDS011;9350;53.176;8.194;2022-11-20T13:38:25;12.80;;;6.53;;
18443;SDS011;9350;53.176;8.194;2022-11-20T13:40:53;9.38;;;6.20;;
18443;SDS011;9350;53.176;8.194;2022-11-20T13:43:22;11.88;;;6.32;;
18443;SDS011;9350;53.176;8.194;2022-11-20T13:45:56;10.63;;;6.47;;
18443;SDS011;9350;53.176;8.194;2022-11-20T13:48:24;10.18;;;6.30;;
18443;SDS011;9350;53.176;8.194;2022-11-20T13:50:55;12.13;;;5.78;;
18443;SDS011;9350;53.176;8.194;2022-11-20T13:53:37;8.95;;;6.30;;
18443;SDS011;9350;53.176;8.194;2022-11-20T13:56:20;10.15;;;6.45;;
18443;SDS011;9350;53.176;8.194;2022-11-20T13:58:53;11.18;;;6.70;;
18443;SDS011;9350;53.176;8.194;2022-11-20T14:01:30;14.52;;;6.53;;
18443;SDS011;9350;53.176;8.194;2022-11-20T14:03:57;10.55;;;5.82;;
18443;SDS011;9350;53.176;8.194;2022-11-20T14:06:25;9.73;;;6.35;;
18443;SDS011;9350;53.176;8.194;2022-11-20T14:08:54;10.20;;;5.60;;
18443;SDS011;9350;53.176;8.194;2022-11-20T14:11:22;11.15;;;6.68;;
18443;SDS011;9350;53.176;8.194;2022-11-20T14:13:59;7.43;;;5.45;;
18443;SDS011;9350;53.176;8.194;2022-11-20T14:16:31;8.98;;;6.07;;
18443;SDS011;9350;53.176;8.194;2022-11-20T14:21:52;10.18;;;6.03;;
18443;SDS011;9350;53.176;8.194;2022-11-20T14:24:20;8.45;;;5.53;;
18443;SDS011;9350;53.176;8.194;2022-11-20T14:26:48;8.68;;;5.53;;
18443;SDS011;9350;53.176;8.194;2022-11-20T14:29:17;10.10;;;5.28;;
18443;SDS011;9350;53.176;8.194;2022-11-20T14:31:47;9.10;;;5.70;;
18443;SDS011;9350;53.176;8.194;2022-11-20T14:34:18;10.50;;;6.00;;
18443;SDS011;9350;53.176;8.194;2022-11-20T14:36:47;9.88;;;5.75;;
18443;SDS011;9350;53.176;8.194;2022-11-20T14:39:19;9.63;;;6.05;;
18443;SDS011;9350;53.176;8.194;2022-11-20T14:41:49;9.73;;;6.20;;
18443;SDS011;9350;53.176;8.194;2022-11-20T14:44:17;10.82;;;6.57;;
18443;SDS011;9350;53.176;8.194;2022-11-20T14:46:47;12.23;;;6.80;;
18443;SDS011;9350;53.176;8.194;2022-11-20T14:49:14;9.60;;;5.90;;
18443;SDS011;9350;53.176;8.194;2022-11-20T14:51:41;9.15;;;6.00;;
18443;SDS011;9350;53.176;8.194;2022-11-20T14:54:11;10.45;;;6.20;;
18443;SDS011;9350;53.176;8.194;2022-11-20T14:56:38;9.88;;;6.30;;
18443;SDS011;9350;53.176;8.194;2022-11-20T14:59:05;9.40;;;5.90;;
18443;SDS011;9350;53.176;8.194;2022-11-20T15:01:32;9.85;;;5.85;;
18443;SDS011;9350;53.176;8.194;2022-11-20T15:04:04;10.32;;;5.95;;
18443;SDS011;9350;53.176;8.194;2022-11-20T15:06:32;9.50;;;6.30;;
18443;SDS011;9350;53.176;8.194;2022-11-20T15:08:59;14.95;;;7.15;;
18443;SDS011;9350;53.176;8.194;2022-11-20T15:11:28;10.35;;;6.30;;
18443;SDS011;9350;53.176;8.194;2022-11-20T15:13:57;13.02;;;6.82;;
18443;SDS011;9350;53.176;8.194;2022-11-20T15:16:27;9.07;;;6.88;;
18443;SDS011;9350;53.176;8.194;2022-11-20T15:18:54;10.38;;;6.47;;